ZSSS METAR and TAF | Updated Today

ZSSS METAR

Shanghai Hongqiao International Airport

Observation time: 16 min. ago

ZSSS 010730Z 14005MPS CAVOK 33/23 Q1012 NOSIG

Need help? Read our tutorial on how to read METARs or read the parsed version below.

Shanghai Hongqiao International Airport (ZSSS) METAR

  • Weather conditions on Sat, 01 Oct 2022 07:30:00 +0000 (16 min. ago):
  • Present conditions: Dry
  • Clouds: Clear skies
  • Visibility: Greater than 10 km
  • Wind: 140 degrees at 5 knots
  • Temperature: 33 celsius
  • Dew point: 23 celsius
  • Pressure: 1012 millibars
  • Remarks: None


Useful to know...

ZSSS TAF

Shanghai Hongqiao International Airport

TAF ZSSS 010312Z 0106/0206 14004MPS 6000 BKN020 TX31/0106Z TN26/0121Z
Observation time: 4:34 hr. ago
Need help? Read our tutorial on how to read TAFs or read the parsed version below.

Parsed version of TAF for Shanghai Hongqiao International Airport (ZSSS)

  • From 01 October at 06:00 UTC, to day 02 of the month at 06:00 UTC
  • Clouds: Broken sky at 610 meters
  • Visibility: 6000 meters
  • Wind: 140 degrees at 4